createdAt,value
2024-05-09T00:09:01.575Z,10.4
2024-05-09T00:19:02.034Z,10.5
2024-05-09T00:29:03.628Z,10.6
2024-05-09T00:39:02.012Z,10.4
2024-05-09T00:49:04.092Z,10.9
2024-05-09T00:59:01.761Z,11.3
2024-05-09T01:09:04.418Z,10.6
2024-05-09T01:19:01.493Z,9.3
2024-05-09T01:29:02.229Z,9
2024-05-09T01:39:01.666Z,8.9
2024-05-09T01:49:02.846Z,10.7
2024-05-09T01:59:03.291Z,11.1
2024-05-09T02:09:01.814Z,10.7
2024-05-09T02:19:02.444Z,12.6
2024-05-09T02:29:05.301Z,11.5
2024-05-09T02:39:01.301Z,9.5
2024-05-09T02:49:03.912Z,9.7
2024-05-09T02:59:02.485Z,10.5
2024-05-09T03:09:01.623Z,18
2024-05-09T03:19:01.373Z,11.8
2024-05-09T03:29:02.364Z,10.1
2024-05-09T03:39:01.332Z,10.4
2024-05-09T03:49:02.593Z,9.7
2024-05-09T03:59:01.772Z,9.7
2024-05-09T04:09:01.683Z,9.2
2024-05-09T04:19:01.543Z,9.4
2024-05-09T04:29:04.011Z,9.7
2024-05-09T04:39:03.827Z,10.6
2024-05-09T04:49:05.200Z,9.1
2024-05-09T04:59:03.672Z,9.1
2024-05-09T05:09:03.243Z,10.3
2024-05-09T05:19:07.169Z,10.3
2024-05-09T05:29:04.948Z,10.1
2024-05-09T05:39:03.531Z,10.2
2024-05-09T05:49:03.752Z,10.4
2024-05-09T05:59:04.601Z,10.7
2024-05-09T06:09:04.404Z,10.9
2024-05-09T06:19:06.425Z,11.3
2024-05-09T06:29:03.796Z,11.8
2024-05-09T06:39:04.176Z,12.1
2024-05-09T06:49:07.431Z,12.4
2024-05-09T06:59:04.228Z,12.9
2024-05-09T07:09:03.431Z,13.3
2024-05-09T07:19:04.279Z,13.6
2024-05-09T07:29:05.966Z,14.2
2024-05-09T07:39:05.087Z,14.8
2024-05-09T07:59:05.015Z,15.2
2024-05-09T08:09:08.199Z,15.6
2024-05-09T08:19:03.839Z,16.4
2024-05-09T08:29:03.552Z,16.5
2024-05-09T08:39:04.146Z,16.8
2024-05-09T08:49:04.887Z,17.1
2024-05-09T08:59:03.769Z,17.3
2024-05-09T09:09:05.220Z,18.6
2024-05-09T09:19:05.555Z,18.6
2024-05-09T09:29:04.699Z,19.4
2024-05-09T09:39:04.606Z,19.6
2024-05-09T09:49:05.353Z,19.5
2024-05-09T09:59:05.709Z,20.1
2024-05-09T10:09:05.069Z,19.7
2024-05-09T10:19:08.840Z,20.2
2024-05-09T10:29:04.612Z,20.4
2024-05-09T10:39:05.372Z,20.1
2024-05-09T10:49:07.233Z,21.4
2024-05-09T10:59:04.432Z,21.3
2024-05-09T11:09:05.944Z,24.6
2024-05-09T11:19:06.085Z,24.9
2024-05-09T11:29:06.729Z,24.6
2024-05-09T11:39:06.576Z,21.4
2024-05-09T11:49:06.368Z,21
2024-05-09T11:59:15.772Z,24.8
2024-05-09T12:09:07.091Z,24.8
2024-05-09T12:19:08.804Z,21.4
2024-05-09T12:29:06.895Z,21
2024-05-09T12:39:07.530Z,21.6
2024-05-09T12:49:08.506Z,20.9
2024-05-09T12:59:07.204Z,21.4
2024-05-09T13:09:06.958Z,24.8
2024-05-09T13:19:07.753Z,24.8
2024-05-09T13:29:07.450Z,21.5
2024-05-09T13:39:06.967Z,21.5
2024-05-09T13:59:08.736Z,24.4
2024-05-09T14:09:06.592Z,21.1
2024-05-09T14:19:09.377Z,20.3
2024-05-09T14:29:07.560Z,19.8
2024-05-09T14:39:11.599Z,19.4
2024-05-09T14:49:08.589Z,19.3
2024-05-09T14:59:08.090Z,18.8
2024-05-09T15:09:06.836Z,18.8
2024-05-09T15:19:07.893Z,18.8
2024-05-09T15:29:08.951Z,18.6
2024-05-09T15:39:07.398Z,18.6
2024-05-09T15:49:10.502Z,18.5
2024-05-09T15:59:08.454Z,18.9
2024-05-09T16:09:07.017Z,18.7
2024-05-09T16:19:07.453Z,19.1
2024-05-09T16:29:07.366Z,18.8
2024-05-09T16:39:08.074Z,18.6
2024-05-09T16:49:08.347Z,18.8
2024-05-09T16:59:08.428Z,18.5
2024-05-09T17:09:11.766Z,18.5
2024-05-09T17:19:08.651Z,18
2024-05-09T17:29:12.332Z,17.6
2024-05-09T17:39:09.526Z,17.5
2024-05-09T17:49:09.153Z,17.5
2024-05-09T17:59:11.272Z,17.5
2024-05-09T18:09:09.445Z,17.5
2024-05-09T18:19:09.637Z,17.7
2024-05-09T18:29:08.474Z,17.6
2024-05-09T18:39:09.263Z,17.3
2024-05-09T18:49:11.072Z,17.2
2024-05-09T18:59:09.168Z,17.1
2024-05-09T19:09:08.934Z,16.8
2024-05-09T19:19:09.144Z,16.4
2024-05-09T19:29:08.966Z,16.4
2024-05-09T19:39:09.255Z,16.3
2024-05-09T19:49:10.709Z,15.6
2024-05-09T19:59:08.960Z,15.4
2024-05-09T20:09:10.844Z,14.8
2024-05-09T20:19:10.122Z,14.3
2024-05-09T20:29:12.676Z,13.8
2024-05-09T20:39:11.070Z,14
2024-05-09T20:49:09.145Z,14.2
2024-05-09T20:59:11.376Z,14.1
2024-05-09T21:09:11.347Z,13.8
2024-05-09T21:19:10.361Z,13.4
2024-05-09T21:29:10.690Z,13.8
2024-05-09T21:39:09.419Z,13.1
2024-05-09T21:49:09.550Z,12.8
2024-05-09T21:59:09.436Z,12.9
2024-05-09T22:09:10.497Z,12.5
2024-05-09T22:19:10.322Z,12.4
2024-05-09T22:29:09.358Z,12.5
2024-05-09T22:39:11.434Z,12.3
2024-05-09T22:49:10.697Z,11.9
2024-05-09T22:59:11.215Z,12.1
2024-05-09T23:09:10.736Z,12
2024-05-09T23:19:12.953Z,11.7
2024-05-09T23:29:09.809Z,11.4
2024-05-09T23:39:12.139Z,12
2024-05-09T23:49:10.953Z,11.5
2024-05-09T23:59:09.538Z,11.1
